sensor_id;sensor_type;location;lat;lon;timestamp;temperature;humidity
11497;DHT22;5805;51.542;7.230;2024-02-15T00:01:42;14.00;99.90
11497;DHT22;5805;51.542;7.230;2024-02-15T00:04:08;14.00;99.90
11497;DHT22;5805;51.542;7.230;2024-02-15T00:06:33;14.00;99.90
11497;DHT22;5805;51.542;7.230;2024-02-15T00:08:59;14.00;99.90
11497;DHT22;5805;51.542;7.230;2024-02-15T00:11:25;14.00;99.90
11497;DHT22;5805;51.542;7.230;2024-02-15T00:13:51;14.00;99.90
11497;DHT22;5805;51.542;7.230;2024-02-15T00:16:18;14.00;99.90
11497;DHT22;5805;51.542;7.230;2024-02-15T00:18:43;14.00;99.90
11497;DHT22;5805;51.542;7.230;2024-02-15T00:21:09;14.00;99.90
11497;DHT22;5805;51.542;7.230;2024-02-15T00:23:35;14.00;99.90
11497;DHT22;5805;51.542;7.230;2024-02-15T00:26:00;14.00;99.90
11497;DHT22;5805;51.542;7.230;2024-02-15T00:28:26;14.00;99.90
11497;DHT22;5805;51.542;7.230;2024-02-15T00:30:52;14.00;99.90
11497;DHT22;5805;51.542;7.230;2024-02-15T00:33:19;14.00;99.90
11497;DHT22;5805;51.542;7.230;2024-02-15T00:35:45;14.00;99.90
11497;DHT22;5805;51.542;7.230;2024-02-15T00:38:10;14.00;99.90
11497;DHT22;5805;51.542;7.230;2024-02-15T00:40:36;14.00;99.90
11497;DHT22;5805;51.542;7.230;2024-02-15T00:43:02;14.00;99.90
11497;DHT22;5805;51.542;7.230;2024-02-15T00:45:27;14.00;99.90
11497;DHT22;5805;51.542;7.230;2024-02-15T00:47:53;14.00;99.90
11497;DHT22;5805;51.542;7.230;2024-02-15T00:50:20;14.00;99.90
11497;DHT22;5805;51.542;7.230;2024-02-15T00:52:46;14.00;99.90
11497;DHT22;5805;51.542;7.230;2024-02-15T00:55:12;14.00;99.90
11497;DHT22;5805;51.542;7.230;2024-02-15T00:57:37;14.00;99.90
11497;DHT22;5805;51.542;7.230;2024-02-15T01:00:04;14.00;99.90
11497;DHT22;5805;51.542;7.230;2024-02-15T01:02:29;14.00;99.90
11497;DHT22;5805;51.542;7.230;2024-02-15T01:04:55;14.00;99.90
11497;DHT22;5805;51.542;7.230;2024-02-15T01:07:22;14.00;99.90
11497;DHT22;5805;51.542;7.230;2024-02-15T01:09:48;14.00;99.90
11497;DHT22;5805;51.542;7.230;2024-02-15T01:12:14;14.00;99.90
11497;DHT22;5805;51.542;7.230;2024-02-15T01:14:39;14.00;99.90
11497;DHT22;5805;51.542;7.230;2024-02-15T01:17:05;14.00;99.90
11497;DHT22;5805;51.542;7.230;2024-02-15T01:19:31;14.00;99.90
11497;DHT22;5805;51.542;7.230;2024-02-15T01:21:56;14.00;99.90
11497;DHT22;5805;51.542;7.230;2024-02-15T01:24:23;14.10;99.90
11497;DHT22;5805;51.542;7.230;2024-02-15T01:26:49;14.00;99.90
11497;DHT22;5805;51.542;7.230;2024-02-15T01:29:15;14.00;99.90
11497;DHT22;5805;51.542;7.230;2024-02-15T01:31:41;14.00;99.90
11497;DHT22;5805;51.542;7.230;2024-02-15T01:34:07;14.00;99.90
11497;DHT22;5805;51.542;7.230;2024-02-15T01:36:34;14.00;99.90
11497;DHT22;5805;51.542;7.230;2024-02-15T01:39:00;14.00;99.90
11497;DHT22;5805;51.542;7.230;2024-02-15T01:41:27;14.00;99.90
11497;DHT22;5805;51.542;7.230;2024-02-15T01:43:53;14.00;99.90
11497;DHT22;5805;51.542;7.230;2024-02-15T01:46:19;14.00;99.90
11497;DHT22;5805;51.542;7.230;2024-02-15T01:48:46;14.00;99.90
11497;DHT22;5805;51.542;7.230;2024-02-15T01:51:12;14.00;99.90
11497;DHT22;5805;51.542;7.230;2024-02-15T01:53:40;14.00;99.90
11497;DHT22;5805;51.542;7.230;2024-02-15T01:56:07;14.00;99.90
11497;DHT22;5805;51.542;7.230;2024-02-15T01:58:34;14.00;99.90
11497;DHT22;5805;51.542;7.230;2024-02-15T02:01:00;14.10;99.90
11497;DHT22;5805;51.542;7.230;2024-02-15T02:03:26;14.10;99.90
11497;DHT22;5805;51.542;7.230;2024-02-15T02:05:52;14.10;99.90
11497;DHT22;5805;51.542;7.230;2024-02-15T02:08:18;14.10;99.90
11497;DHT22;5805;51.542;7.230;2024-02-15T02:10:44;14.10;99.90
11497;DHT22;5805;51.542;7.230;2024-02-15T02:13:10;14.10;99.90
11497;DHT22;5805;51.542;7.230;2024-02-15T02:15:40;14.10;99.90
11497;DHT22;5805;51.542;7.230;2024-02-15T02:18:05;14.10;99.90
11497;DHT22;5805;51.542;7.230;2024-02-15T02:20:31;14.10;99.90
11497;DHT22;5805;51.542;7.230;2024-02-15T02:23:02;14.10;99.90
11497;DHT22;5805;51.542;7.230;2024-02-15T02:25:30;14.20;99.90
11497;DHT22;5805;51.542;7.230;2024-02-15T02:27:56;14.20;99.90
11497;DHT22;5805;51.542;7.230;2024-02-15T02:30:22;14.20;99.90
11497;DHT22;5805;51.542;7.230;2024-02-15T02:32:48;14.10;99.90
11497;DHT22;5805;51.542;7.230;2024-02-15T02:35:14;14.10;99.90
11497;DHT22;5805;51.542;7.230;2024-02-15T02:37:41;14.10;99.90
11497;DHT22;5805;51.542;7.230;2024-02-15T02:40:08;14.10;99.90
11497;DHT22;5805;51.542;7.230;2024-02-15T02:42:35;14.10;99.90
11497;DHT22;5805;51.542;7.230;2024-02-15T02:45:01;14.30;99.90
11497;DHT22;5805;51.542;7.230;2024-02-15T02:47:26;14.10;99.90
11497;DHT22;5805;51.542;7.230;2024-02-15T02:49:52;14.10;99.90
11497;DHT22;5805;51.542;7.230;2024-02-15T02:52:18;14.10;99.90
11497;DHT22;5805;51.542;7.230;2024-02-15T02:54:43;14.10;99.90
11497;DHT22;5805;51.542;7.230;2024-02-15T02:57:09;14.10;99.90
11497;DHT22;5805;51.542;7.230;2024-02-15T02:59:36;14.10;99.90
11497;DHT22;5805;51.542;7.230;2024-02-15T03:02:02;14.20;99.90
11497;DHT22;5805;51.542;7.230;2024-02-15T03:04:27;14.10;99.90
11497;DHT22;5805;51.542;7.230;2024-02-15T03:06:53;14.20;99.90
11497;DHT22;5805;51.542;7.230;2024-02-15T03:09:19;14.20;99.90
11497;DHT22;5805;51.542;7.230;2024-02-15T03:11:45;14.20;99.90
11497;DHT22;5805;51.542;7.230;2024-02-15T03:14:10;14.10;99.90
11497;DHT22;5805;51.542;7.230;2024-02-15T03:16:38;14.20;99.90
11497;DHT22;5805;51.542;7.230;2024-02-15T03:19:04;14.20;99.90
11497;DHT22;5805;51.542;7.230;2024-02-15T03:21:30;14.10;99.90
11497;DHT22;5805;51.542;7.230;2024-02-15T03:23:55;14.20;99.90
11497;DHT22;5805;51.542;7.230;2024-02-15T03:26:30;14.20;99.90
11497;DHT22;5805;51.542;7.230;2024-02-15T03:28:56;14.20;99.90
11497;DHT22;5805;51.542;7.230;2024-02-15T03:31:22;14.20;99.90
11497;DHT22;5805;51.542;7.230;2024-02-15T03:33:49;14.20;99.90
11497;DHT22;5805;51.542;7.230;2024-02-15T03:36:16;14.10;99.90
11497;DHT22;5805;51.542;7.230;2024-02-15T03:38:41;14.10;99.90
11497;DHT22;5805;51.542;7.230;2024-02-15T03:41:10;14.10;99.90
11497;DHT22;5805;51.542;7.230;2024-02-15T03:43:36;14.10;99.90
11497;DHT22;5805;51.542;7.230;2024-02-15T03:46:01;14.10;99.90
11497;DHT22;5805;51.542;7.230;2024-02-15T03:48:27;14.20;99.90
11497;DHT22;5805;51.542;7.230;2024-02-15T03:50:54;14.10;99.90
11497;DHT22;5805;51.542;7.230;2024-02-15T03:53:20;14.20;99.90
11497;DHT22;5805;51.542;7.230;2024-02-15T03:55:45;14.20;99.90
11497;DHT22;5805;51.542;7.230;2024-02-15T03:58:11;14.20;99.90
11497;DHT22;5805;51.542;7.230;2024-02-15T04:00:37;14.20;99.90
11497;DHT22;5805;51.542;7.230;2024-02-15T04:03:03;14.20;99.90
11497;DHT22;5805;51.542;7.230;2024-02-15T04:05:29;14.20;99.90
11497;DHT22;5805;51.542;7.230;2024-02-15T04:07:56;14.20;99.90
11497;DHT22;5805;51.542;7.230;2024-02-15T04:10:22;14.20;99.90
11497;DHT22;5805;51.542;7.230;2024-02-15T04:12:47;14.20;99.90
11497;DHT22;5805;51.542;7.230;2024-02-15T04:15:13;14.20;99.90
11497;DHT22;5805;51.542;7.230;2024-02-15T04:17:39;14.20;99.90
11497;DHT22;5805;51.542;7.230;2024-02-15T04:20:06;14.20;99.90
11497;DHT22;5805;51.542;7.230;2024-02-15T04:22:32;14.20;99.90
11497;DHT22;5805;51.542;7.230;2024-02-15T04:24:59;14.20;99.90
11497;DHT22;5805;51.542;7.230;2024-02-15T04:27:25;14.20;99.90
11497;DHT22;5805;51.542;7.230;2024-02-15T04:29:50;14.20;99.90
11497;DHT22;5805;51.542;7.230;2024-02-15T04:32:16;14.30;99.90
11497;DHT22;5805;51.542;7.230;2024-02-15T04:34:42;14.30;99.90
11497;DHT22;5805;51.542;7.230;2024-02-15T04:37:07;14.30;99.90
11497;DHT22;5805;51.542;7.230;2024-02-15T04:39:33;14.30;99.90
11497;DHT22;5805;51.542;7.230;2024-02-15T04:42:01;14.30;99.90
11497;DHT22;5805;51.542;7.230;2024-02-15T04:44:26;14.30;99.90
11497;DHT22;5805;51.542;7.230;2024-02-15T04:46:52;14.30;99.90
11497;DHT22;5805;51.542;7.230;2024-02-15T04:49:18;14.30;99.90
11497;DHT22;5805;51.542;7.230;2024-02-15T04:51:43;14.30;99.90
11497;DHT22;5805;51.542;7.230;2024-02-15T04:54:09;14.30;99.90
11497;DHT22;5805;51.542;7.230;2024-02-15T04:56:35;14.30;99.90
11497;DHT22;5805;51.542;7.230;2024-02-15T04:59:02;14.30;99.90
11497;DHT22;5805;51.542;7.230;2024-02-15T05:01:28;14.30;99.90
11497;DHT22;5805;51.542;7.230;2024-02-15T05:03:53;14.30;99.90
11497;DHT22;5805;51.542;7.230;2024-02-15T05:06:19;14.30;99.90
11497;DHT22;5805;51.542;7.230;2024-02-15T05:08:45;14.30;99.90
11497;DHT22;5805;51.542;7.230;2024-02-15T05:11:11;14.30;99.90
11497;DHT22;5805;51.542;7.230;2024-02-15T05:13:37;14.30;99.90
11497;DHT22;5805;51.542;7.230;2024-02-15T05:16:05;14.30;99.90
11497;DHT22;5805;51.542;7.230;2024-02-15T05:18:30;14.30;99.90
11497;DHT22;5805;51.542;7.230;2024-02-15T05:20:56;14.30;99.90
11497;DHT22;5805;51.542;7.230;2024-02-15T05:23:22;14.30;99.90
11497;DHT22;5805;51.542;7.230;2024-02-15T05:25:48;14.30;99.90
11497;DHT22;5805;51.542;7.230;2024-02-15T05:28:13;14.30;99.90
11497;DHT22;5805;51.542;7.230;2024-02-15T05:30:39;14.30;99.90
11497;DHT22;5805;51.542;7.230;2024-02-15T05:33:06;14.30;99.90
11497;DHT22;5805;51.542;7.230;2024-02-15T05:35:32;14.40;99.90
11497;DHT22;5805;51.542;7.230;2024-02-15T05:37:57;14.40;99.90
11497;DHT22;5805;51.542;7.230;2024-02-15T05:40:23;14.40;99.90
11497;DHT22;5805;51.542;7.230;2024-02-15T05:42:55;14.40;99.90
11497;DHT22;5805;51.542;7.230;2024-02-15T05:45:31;14.40;99.90
11497;DHT22;5805;51.542;7.230;2024-02-15T05:47:57;14.40;99.90
11497;DHT22;5805;51.542;7.230;2024-02-15T05:50:24;14.40;99.90
11497;DHT22;5805;51.542;7.230;2024-02-15T05:52:50;14.40;99.90
11497;DHT22;5805;51.542;7.230;2024-02-15T05:55:16;14.40;99.90
11497;DHT22;5805;51.542;7.230;2024-02-15T05:57:42;14.30;99.90
11497;DHT22;5805;51.542;7.230;2024-02-15T06:00:09;14.40;99.90
11497;DHT22;5805;51.542;7.230;2024-02-15T06:02:35;14.40;99.90
11497;DHT22;5805;51.542;7.230;2024-02-15T06:05:00;14.40;99.90
11497;DHT22;5805;51.542;7.230;2024-02-15T06:07:27;14.40;99.90
11497;DHT22;5805;51.542;7.230;2024-02-15T06:09:53;14.40;99.90
11497;DHT22;5805;51.542;7.230;2024-02-15T06:12:19;14.40;99.90
11497;DHT22;5805;51.542;7.230;2024-02-15T06:14:44;14.40;99.90
11497;DHT22;5805;51.542;7.230;2024-02-15T06:17:10;14.50;99.90
11497;DHT22;5805;51.542;7.230;2024-02-15T06:19:36;14.60;99.90
11497;DHT22;5805;51.542;7.230;2024-02-15T06:22:01;14.40;99.90
11497;DHT22;5805;51.542;7.230;2024-02-15T06:24:28;14.40;99.90
11497;DHT22;5805;51.542;7.230;2024-02-15T06:26:54;14.50;99.90
11497;DHT22;5805;51.542;7.230;2024-02-15T06:29:20;14.40;99.90
11497;DHT22;5805;51.542;7.230;2024-02-15T06:31:45;14.40;99.90
11497;DHT22;5805;51.542;7.230;2024-02-15T06:34:11;14.50;99.90
11497;DHT22;5805;51.542;7.230;2024-02-15T06:36:39;14.40;99.90
11497;DHT22;5805;51.542;7.230;2024-02-15T06:39:05;14.50;99.90
11497;DHT22;5805;51.542;7.230;2024-02-15T06:41:32;14.40;99.90
11497;DHT22;5805;51.542;7.230;2024-02-15T06:43:58;14.40;99.90
11497;DHT22;5805;51.542;7.230;2024-02-15T06:46:23;14.40;99.90
11497;DHT22;5805;51.542;7.230;2024-02-15T06:48:49;14.40;99.90
11497;DHT22;5805;51.542;7.230;2024-02-15T06:51:15;14.50;99.90
11497;DHT22;5805;51.542;7.230;2024-02-15T06:53:41;14.40;99.90
11497;DHT22;5805;51.542;7.230;2024-02-15T06:56:08;14.50;99.90
11497;DHT22;5805;51.542;7.230;2024-02-15T06:58:35;14.50;99.90
11497;DHT22;5805;51.542;7.230;2024-02-15T07:01:01;14.50;99.90
11497;DHT22;5805;51.542;7.230;2024-02-15T07:03:28;14.50;99.90
11497;DHT22;5805;51.542;7.230;2024-02-15T07:05:53;14.50;99.90
11497;DHT22;5805;51.542;7.230;2024-02-15T07:08:19;14.50;99.90
11497;DHT22;5805;51.542;7.230;2024-02-15T07:10:45;14.50;99.90
11497;DHT22;5805;51.542;7.230;2024-02-15T07:13:10;14.50;99.90
11497;DHT22;5805;51.542;7.230;2024-02-15T07:15:38;14.40;99.90
11497;DHT22;5805;51.542;7.230;2024-02-15T07:18:04;14.50;99.90
11497;DHT22;5805;51.542;7.230;2024-02-15T07:20:30;14.50;99.90
11497;DHT22;5805;51.542;7.230;2024-02-15T07:22:56;14.50;99.90
11497;DHT22;5805;51.542;7.230;2024-02-15T07:25:21;14.50;99.90
11497;DHT22;5805;51.542;7.230;2024-02-15T07:27:47;14.40;99.90
11497;DHT22;5805;51.542;7.230;2024-02-15T07:30:13;14.70;99.90
11497;DHT22;5805;51.542;7.230;2024-02-15T07:32:41;14.40;99.90
11497;DHT22;5805;51.542;7.230;2024-02-15T07:35:07;14.40;99.90
11497;DHT22;5805;51.542;7.230;2024-02-15T07:37:33;14.40;99.90
11497;DHT22;5805;51.542;7.230;2024-02-15T07:39:59;14.50;99.90
11497;DHT22;5805;51.542;7.230;2024-02-15T07:42:25;14.50;99.90
11497;DHT22;5805;51.542;7.230;2024-02-15T07:44:50;14.50;99.90
11497;DHT22;5805;51.542;7.230;2024-02-15T07:47:16;14.50;99.90
11497;DHT22;5805;51.542;7.230;2024-02-15T07:49:43;14.50;99.90
11497;DHT22;5805;51.542;7.230;2024-02-15T07:52:11;14.50;99.90
11497;DHT22;5805;51.542;7.230;2024-02-15T07:54:36;14.50;99.90
11497;DHT22;5805;51.542;7.230;2024-02-15T07:57:02;14.50;99.90
11497;DHT22;5805;51.542;7.230;2024-02-15T07:59:28;14.40;99.90
11497;DHT22;5805;51.542;7.230;2024-02-15T08:01:54;14.40;99.90
11497;DHT22;5805;51.542;7.230;2024-02-15T08:04:20;14.40;99.90
11497;DHT22;5805;51.542;7.230;2024-02-15T08:06:47;14.40;99.90
11497;DHT22;5805;51.542;7.230;2024-02-15T08:09:12;14.40;99.90
11497;DHT22;5805;51.542;7.230;2024-02-15T08:11:38;14.30;99.90
11497;DHT22;5805;51.542;7.230;2024-02-15T08:14:04;14.40;99.90
11497;DHT22;5805;51.542;7.230;2024-02-15T08:16:29;14.40;99.90
11497;DHT22;5805;51.542;7.230;2024-02-15T08:18:55;14.50;99.90
11497;DHT22;5805;51.542;7.230;2024-02-15T08:21:25;14.60;99.90
11497;DHT22;5805;51.542;7.230;2024-02-15T08:23:53;14.60;99.90
11497;DHT22;5805;51.542;7.230;2024-02-15T08:26:18;14.70;99.90
11497;DHT22;5805;51.542;7.230;2024-02-15T08:28:44;14.70;99.90
11497;DHT22;5805;51.542;7.230;2024-02-15T08:31:10;14.70;99.90
11497;DHT22;5805;51.542;7.230;2024-02-15T08:33:35;14.80;99.90
11497;DHT22;5805;51.542;7.230;2024-02-15T08:36:01;14.80;99.90
11497;DHT22;5805;51.542;7.230;2024-02-15T08:38:27;14.80;99.90
11497;DHT22;5805;51.542;7.230;2024-02-15T08:40:54;14.80;99.90
11497;DHT22;5805;51.542;7.230;2024-02-15T08:43:19;14.80;99.90
11497;DHT22;5805;51.542;7.230;2024-02-15T08:45:45;14.80;99.90
11497;DHT22;5805;51.542;7.230;2024-02-15T08:48:11;14.80;99.90
11497;DHT22;5805;51.542;7.230;2024-02-15T08:50:37;14.80;99.90
11497;DHT22;5805;51.542;7.230;2024-02-15T08:53:03;14.90;99.90
11497;DHT22;5805;51.542;7.230;2024-02-15T08:55:28;14.90;99.90
11497;DHT22;5805;51.542;7.230;2024-02-15T08:57:58;14.90;99.90
11497;DHT22;5805;51.542;7.230;2024-02-15T09:00:24;14.90;99.90
11497;DHT22;5805;51.542;7.230;2024-02-15T09:02:49;15.00;99.90
11497;DHT22;5805;51.542;7.230;2024-02-15T09:05:15;15.00;99.90
11497;DHT22;5805;51.542;7.230;2024-02-15T09:07:41;15.00;99.90
11497;DHT22;5805;51.542;7.230;2024-02-15T09:10:08;15.00;99.90
11497;DHT22;5805;51.542;7.230;2024-02-15T09:12:35;15.00;99.90
11497;DHT22;5805;51.542;7.230;2024-02-15T09:15:03;15.00;99.90
11497;DHT22;5805;51.542;7.230;2024-02-15T09:17:29;15.00;99.90
11497;DHT22;5805;51.542;7.230;2024-02-15T09:19:54;15.00;99.90
11497;DHT22;5805;51.542;7.230;2024-02-15T09:22:20;15.00;99.90
11497;DHT22;5805;51.542;7.230;2024-02-15T09:24:46;15.00;99.90
11497;DHT22;5805;51.542;7.230;2024-02-15T09:27:11;15.00;99.90
11497;DHT22;5805;51.542;7.230;2024-02-15T09:29:37;15.00;99.90
11497;DHT22;5805;51.542;7.230;2024-02-15T09:32:05;15.00;99.90
11497;DHT22;5805;51.542;7.230;2024-02-15T09:34:30;15.00;99.90
11497;DHT22;5805;51.542;7.230;2024-02-15T09:36:56;15.00;99.90
11497;DHT22;5805;51.542;7.230;2024-02-15T09:39:22;15.00;99.90
11497;DHT22;5805;51.542;7.230;2024-02-15T09:41:48;15.00;99.90
11497;DHT22;5805;51.542;7.230;2024-02-15T09:44:13;15.10;99.90
11497;DHT22;5805;51.542;7.230;2024-02-15T09:46:43;15.20;99.90
11497;DHT22;5805;51.542;7.230;2024-02-15T09:49:11;15.20;99.90
11497;DHT22;5805;51.542;7.230;2024-02-15T09:51:38;15.40;99.90
11497;DHT22;5805;51.542;7.230;2024-02-15T09:54:06;15.50;99.90
11497;DHT22;5805;51.542;7.230;2024-02-15T09:56:32;15.60;99.90
11497;DHT22;5805;51.542;7.230;2024-02-15T09:58:59;15.80;99.90
11497;DHT22;5805;51.542;7.230;2024-02-15T10:01:26;16.00;99.90
11497;DHT22;5805;51.542;7.230;2024-02-15T10:03:52;16.20;99.90
11497;DHT22;5805;51.542;7.230;2024-02-15T10:06:20;16.40;99.90
11497;DHT22;5805;51.542;7.230;2024-02-15T10:08:46;16.40;99.90
11497;DHT22;5805;51.542;7.230;2024-02-15T10:11:13;16.40;99.90
11497;DHT22;5805;51.542;7.230;2024-02-15T10:13:39;16.40;99.90
11497;DHT22;5805;51.542;7.230;2024-02-15T10:16:18;16.40;99.90
11497;DHT22;5805;51.542;7.230;2024-02-15T10:18:44;16.30;99.90
11497;DHT22;5805;51.542;7.230;2024-02-15T10:21:10;16.30;99.90
11497;DHT22;5805;51.542;7.230;2024-02-15T10:23:37;16.30;99.90
11497;DHT22;5805;51.542;7.230;2024-02-15T10:26:19;16.20;99.90
11497;DHT22;5805;51.542;7.230;2024-02-15T10:28:45;16.30;99.90
11497;DHT22;5805;51.542;7.230;2024-02-15T10:31:10;16.30;99.90
11497;DHT22;5805;51.542;7.230;2024-02-15T10:33:36;16.40;99.90
11497;DHT22;5805;51.542;7.230;2024-02-15T10:36:05;16.50;99.90
11497;DHT22;5805;51.542;7.230;2024-02-15T10:38:31;16.60;99.90
11497;DHT22;5805;51.542;7.230;2024-02-15T10:41:03;16.80;99.90
11497;DHT22;5805;51.542;7.230;2024-02-15T10:43:29;16.90;99.90
11497;DHT22;5805;51.542;7.230;2024-02-15T10:45:56;17.00;99.90
11497;DHT22;5805;51.542;7.230;2024-02-15T10:48:22;17.20;99.90
11497;DHT22;5805;51.542;7.230;2024-02-15T10:50:49;17.20;99.90
11497;DHT22;5805;51.542;7.230;2024-02-15T10:53:23;17.20;99.90
11497;DHT22;5805;51.542;7.230;2024-02-15T10:55:56;17.20;99.90
11497;DHT22;5805;51.542;7.230;2024-02-15T10:58:26;17.20;99.90
11497;DHT22;5805;51.542;7.230;2024-02-15T11:00:55;17.10;99.90
11497;DHT22;5805;51.542;7.230;2024-02-15T11:03:25;17.10;99.90
11497;DHT22;5805;51.542;7.230;2024-02-15T11:05:56;17.00;99.90
11497;DHT22;5805;51.542;7.230;2024-02-15T11:08:23;17.00;99.90
11497;DHT22;5805;51.542;7.230;2024-02-15T11:10:49;16.90;99.90
11497;DHT22;5805;51.542;7.230;2024-02-15T11:13:15;16.90;99.90
11497;DHT22;5805;51.542;7.230;2024-02-15T11:15:44;16.90;99.90
11497;DHT22;5805;51.542;7.230;2024-02-15T11:18:10;16.90;99.90
11497;DHT22;5805;51.542;7.230;2024-02-15T11:20:50;16.80;99.90
11497;DHT22;5805;51.542;7.230;2024-02-15T11:23:26;16.80;99.90
11497;DHT22;5805;51.542;7.230;2024-02-15T11:25:52;16.80;99.90
11497;DHT22;5805;51.542;7.230;2024-02-15T11:28:36;16.80;99.90
11497;DHT22;5805;51.542;7.230;2024-02-15T11:31:03;16.80;99.90
11497;DHT22;5805;51.542;7.230;2024-02-15T11:33:30;16.80;99.90
11497;DHT22;5805;51.542;7.230;2024-02-15T11:36:03;16.70;99.90
11497;DHT22;5805;51.542;7.230;2024-02-15T11:38:29;16.80;99.90
11497;DHT22;5805;51.542;7.230;2024-02-15T11:41:02;16.70;99.90
11497;DHT22;5805;51.542;7.230;2024-02-15T11:43:53;16.70;99.90
11497;DHT22;5805;51.542;7.230;2024-02-15T11:46:21;16.70;99.90
11497;DHT22;5805;51.542;7.230;2024-02-15T11:48:47;16.70;99.90
11497;DHT22;5805;51.542;7.230;2024-02-15T11:51:28;16.70;99.90
11497;DHT22;5805;51.542;7.230;2024-02-15T11:54:02;16.70;99.90
11497;DHT22;5805;51.542;7.230;2024-02-15T11:56:28;16.70;99.90
11497;DHT22;5805;51.542;7.230;2024-02-15T11:59:02;16.80;99.90
11497;DHT22;5805;51.542;7.230;2024-02-15T12:01:29;16.90;99.90
11497;DHT22;5805;51.542;7.230;2024-02-15T12:03:56;16.90;99.90
11497;DHT22;5805;51.542;7.230;2024-02-15T12:06:22;16.90;99.90
11497;DHT22;5805;51.542;7.230;2024-02-15T12:08:49;16.90;99.90
11497;DHT22;5805;51.542;7.230;2024-02-15T12:11:14;17.00;99.90
11497;DHT22;5805;51.542;7.230;2024-02-15T12:13:40;17.00;99.90
11497;DHT22;5805;51.542;7.230;2024-02-15T12:16:06;17.10;99.90
11497;DHT22;5805;51.542;7.230;2024-02-15T12:18:33;17.20;99.90
11497;DHT22;5805;51.542;7.230;2024-02-15T12:20:58;17.20;99.90
11497;DHT22;5805;51.542;7.230;2024-02-15T12:23:24;17.40;99.90
11497;DHT22;5805;51.542;7.230;2024-02-15T12:25:51;17.50;99.90
11497;DHT22;5805;51.542;7.230;2024-02-15T12:28:17;17.60;99.90
11497;DHT22;5805;51.542;7.230;2024-02-15T12:30:43;17.60;99.90
11497;DHT22;5805;51.542;7.230;2024-02-15T12:33:09;17.70;99.90
11497;DHT22;5805;51.542;7.230;2024-02-15T12:35:36;17.70;99.90
11497;DHT22;5805;51.542;7.230;2024-02-15T12:38:03;17.80;99.90
11497;DHT22;5805;51.542;7.230;2024-02-15T12:40:31;17.80;99.90
11497;DHT22;5805;51.542;7.230;2024-02-15T12:42:57;17.90;99.90
11497;DHT22;5805;51.542;7.230;2024-02-15T12:45:25;17.90;99.90
11497;DHT22;5805;51.542;7.230;2024-02-15T12:47:52;17.80;99.90
11497;DHT22;5805;51.542;7.230;2024-02-15T12:50:19;17.80;99.90
11497;DHT22;5805;51.542;7.230;2024-02-15T12:52:47;17.80;99.90
11497;DHT22;5805;51.542;7.230;2024-02-15T12:55:14;17.90;99.90
11497;DHT22;5805;51.542;7.230;2024-02-15T12:57:41;17.90;99.90
11497;DHT22;5805;51.542;7.230;2024-02-15T13:00:08;17.90;99.90
11497;DHT22;5805;51.542;7.230;2024-02-15T13:02:34;18.00;99.90
11497;DHT22;5805;51.542;7.230;2024-02-15T13:05:00;18.00;99.90
11497;DHT22;5805;51.542;7.230;2024-02-15T13:07:25;18.10;99.90
11497;DHT22;5805;51.542;7.230;2024-02-15T13:09:53;18.10;99.90
11497;DHT22;5805;51.542;7.230;2024-02-15T13:12:18;18.10;99.90
11497;DHT22;5805;51.542;7.230;2024-02-15T13:14:44;18.10;99.90
11497;DHT22;5805;51.542;7.230;2024-02-15T13:17:09;18.10;99.90
11497;DHT22;5805;51.542;7.230;2024-02-15T13:19:35;18.20;99.90
11497;DHT22;5805;51.542;7.230;2024-02-15T13:22:01;18.20;99.90
11497;DHT22;5805;51.542;7.230;2024-02-15T13:24:26;18.20;99.90
11497;DHT22;5805;51.542;7.230;2024-02-15T13:26:53;18.20;99.90
11497;DHT22;5805;51.542;7.230;2024-02-15T13:29:19;18.20;99.90
11497;DHT22;5805;51.542;7.230;2024-02-15T13:31:45;18.20;99.90
11497;DHT22;5805;51.542;7.230;2024-02-15T13:34:10;18.30;99.90
11497;DHT22;5805;51.542;7.230;2024-02-15T13:36:36;18.30;99.90
11497;DHT22;5805;51.542;7.230;2024-02-15T13:39:02;18.40;99.90
11497;DHT22;5805;51.542;7.230;2024-02-15T13:41:28;18.40;99.90
11497;DHT22;5805;51.542;7.230;2024-02-15T13:43:55;18.40;99.90
11497;DHT22;5805;51.542;7.230;2024-02-15T13:46:20;18.40;99.90
11497;DHT22;5805;51.542;7.230;2024-02-15T13:48:46;18.50;99.90
11497;DHT22;5805;51.542;7.230;2024-02-15T13:51:12;18.50;99.90
11497;DHT22;5805;51.542;7.230;2024-02-15T13:53:39;18.50;99.90
11497;DHT22;5805;51.542;7.230;2024-02-15T13:56:06;18.50;99.90
11497;DHT22;5805;51.542;7.230;2024-02-15T13:58:32;18.50;99.90
11497;DHT22;5805;51.542;7.230;2024-02-15T14:00:59;18.50;99.90
11497;DHT22;5805;51.542;7.230;2024-02-15T14:03:24;18.60;99.90
11497;DHT22;5805;51.542;7.230;2024-02-15T14:05:50;18.50;99.90
11497;DHT22;5805;51.542;7.230;2024-02-15T14:08:16;18.50;99.90
11497;DHT22;5805;51.542;7.230;2024-02-15T14:10:41;18.50;99.90
11497;DHT22;5805;51.542;7.230;2024-02-15T14:13:08;18.50;99.90
11497;DHT22;5805;51.542;7.230;2024-02-15T14:15:34;18.40;99.90
11497;DHT22;5805;51.542;7.230;2024-02-15T14:18:01;18.50;99.90
11497;DHT22;5805;51.542;7.230;2024-02-15T14:20:27;18.50;99.90
11497;DHT22;5805;51.542;7.230;2024-02-15T14:22:53;18.50;99.90
11497;DHT22;5805;51.542;7.230;2024-02-15T14:25:19;18.50;99.90
11497;DHT22;5805;51.542;7.230;2024-02-15T14:27:45;18.40;99.90
11497;DHT22;5805;51.542;7.230;2024-02-15T14:30:11;18.40;99.90
11497;DHT22;5805;51.542;7.230;2024-02-15T14:32:37;18.30;99.90
11497;DHT22;5805;51.542;7.230;2024-02-15T14:35:05;18.20;99.90
11497;DHT22;5805;51.542;7.230;2024-02-15T14:37:31;18.20;99.90
11497;DHT22;5805;51.542;7.230;2024-02-15T14:39:56;18.20;99.90
11497;DHT22;5805;51.542;7.230;2024-02-15T14:42:22;18.10;99.90
11497;DHT22;5805;51.542;7.230;2024-02-15T14:44:48;18.10;99.90
11497;DHT22;5805;51.542;7.230;2024-02-15T14:47:13;18.10;99.90
11497;DHT22;5805;51.542;7.230;2024-02-15T14:49:39;18.10;99.90
11497;DHT22;5805;51.542;7.230;2024-02-15T14:52:06;18.10;99.90
11497;DHT22;5805;51.542;7.230;2024-02-15T14:54:32;18.10;99.90
11497;DHT22;5805;51.542;7.230;2024-02-15T14:56:58;18.10;99.90
11497;DHT22;5805;51.542;7.230;2024-02-15T14:59:23;18.10;99.90
11497;DHT22;5805;51.542;7.230;2024-02-15T15:01:49;18.10;99.90
11497;DHT22;5805;51.542;7.230;2024-02-15T15:04:15;18.00;99.90
11497;DHT22;5805;51.542;7.230;2024-02-15T15:06:44;18.10;99.90
11497;DHT22;5805;51.542;7.230;2024-02-15T15:09:11;18.00;99.90
11497;DHT22;5805;51.542;7.230;2024-02-15T15:11:37;18.00;99.90
11497;DHT22;5805;51.542;7.230;2024-02-15T15:14:02;18.00;99.90
11497;DHT22;5805;51.542;7.230;2024-02-15T15:16:28;17.90;99.90
11497;DHT22;5805;51.542;7.230;2024-02-15T15:18:54;17.90;99.90
11497;DHT22;5805;51.542;7.230;2024-02-15T15:21:20;17.90;99.90
11497;DHT22;5805;51.542;7.230;2024-02-15T15:23:45;18.00;99.90
11497;DHT22;5805;51.542;7.230;2024-02-15T15:26:18;17.90;99.90
11497;DHT22;5805;51.542;7.230;2024-02-15T15:28:44;17.90;99.90
11497;DHT22;5805;51.542;7.230;2024-02-15T15:31:10;17.80;99.90
11497;DHT22;5805;51.542;7.230;2024-02-15T15:33:36;17.70;99.90
11497;DHT22;5805;51.542;7.230;2024-02-15T15:36:01;17.60;99.90
11497;DHT22;5805;51.542;7.230;2024-02-15T15:38:27;17.60;99.90
11497;DHT22;5805;51.542;7.230;2024-02-15T15:40:53;17.60;99.90